Terminal Aerodrome Forecast
Issued by NWS

Current Version | Previous Version | Text Only | Print | Product List | Glossary On
Versions: 1 2 3 4 5 6 7 8 9 10 11 12 13
049
FTUS44 KEPZ 100523
TAFDMN
TAF
KDMN 100523Z 1006/1106 05005KT P6SM SKC
     FM102100 25006KT P6SM SKC=

USA.gov is the U.S. government's official web portal to all federal, state and local government web resources and services.